»·PEaware :: N815M KLAX-KSNA

N815M :: KLAX-KSNA

FLIGHT INFORMATION

Flight Status: Arrived
Operator: Privately registered:
United States
More flights under this callsign
Pilot: Robert C. (30425)
Aircraft: BEECH AIRCRAFT DEBONAIR BONANZA
(BE33)
More flights by this aircraft type
Origin: KLAX Los Angeles Intl
United States
Destination: KSNA John Wayne-Orange Co
United States
More flights between these airports :: More routes between these airports
Route: SLI8 SLI
File this flight plan on PilotEdge
Remarks:
Altitude:
(Current/Filed)
4,000ft
Speed:
(Current/Filed)
160kts
Departed: 23-Sep-20 07:12 PM
Arrived: 23-Sep-20 07:44 PM
Distance/Time
Traveled:
31nm/0:31
Distance/Time
To Go:
Arrived

Flight Plot

Page will automatically refresh every two minutes.

Flight plan parsing failed; only flown route is shown


Map Options




Map Legend


Flown Route
Filed Route
Departure Airport
Arrival Airport
Navaid (VOR, NDB)
Fix

Horizontal Profiles

Position Reports

Time Latitude Longitude Heading Altitude Ground
Speed
23-Sep-20 18:45 33.932734 -118.397677 304 119ft 0kts
23-Sep-20 18:45 33.932734 -118.397677 304 119ft 0kts
23-Sep-20 18:46 33.932734 -118.397677 304 119ft 0kts
23-Sep-20 18:47 33.932734 -118.397677 304 119ft 0kts
23-Sep-20 18:48 33.932734 -118.397677 304 119ft 0kts
23-Sep-20 18:49 33.932734 -118.397677 304 119ft 0kts
23-Sep-20 18:50 33.932734 -118.397677 304 119ft 0kts
23-Sep-20 18:51 33.932734 -118.397677 304 119ft 0kts
23-Sep-20 18:52 33.932734 -118.397677 304 119ft 0kts
23-Sep-20 18:53 33.932734 -118.397677 304 119ft 0kts
23-Sep-20 18:54 33.932734 -118.397677 304 119ft 0kts
23-Sep-20 18:55 33.932734 -118.397677 304 119ft 0kts
23-Sep-20 18:56 33.932734 -118.397677 304 119ft 0kts
23-Sep-20 18:57 33.932734 -118.397677 304 119ft 0kts
23-Sep-20 18:58 33.932734 -118.397677 304 119ft 0kts
23-Sep-20 18:59 33.932734 -118.397677 304 119ft 0kts
23-Sep-20 19:00 33.932734 -118.397677 304 119ft 0kts
23-Sep-20 19:01 33.932734 -118.397677 304 119ft 0kts
23-Sep-20 19:02 33.932734 -118.397677 304 119ft 0kts
23-Sep-20 19:03 33.932734 -118.397677 304 119ft 0kts
23-Sep-20 19:04 33.932734 -118.397677 304 119ft 0kts
23-Sep-20 19:05 33.934579 -118.397738 78 112ft 13kts
23-Sep-20 19:06 33.935133 -118.392680 81 105ft 15kts
23-Sep-20 19:07 33.935591 -118.387881 83 103ft 13kts
23-Sep-20 19:08 33.936127 -118.383328 70 100ft 14kts
23-Sep-20 19:09 33.936434 -118.382840 21 99ft 0kts
23-Sep-20 19:10 33.937166 -118.383384 257 100ft 0kts
23-Sep-20 19:11 33.934625 -118.405986 263 519ft 78kts
23-Sep-20 19:12 33.931741 -118.433123 263 1136ft 81kts
23-Sep-20 19:13 33.917193 -118.452276 210 1735ft 82kts
23-Sep-20 19:14 33.894899 -118.466778 211 2245ft 114kts
23-Sep-20 19:15 33.863152 -118.458140 143 3091ft 137kts
23-Sep-20 19:16 33.833583 -118.429632 143 3962ft 136kts
23-Sep-20 19:17 33.804238 -118.392738 101 4005ft 169kts
23-Sep-20 19:18 33.802172 -118.334394 91 4000ft 175kts
23-Sep-20 19:19 33.800237 -118.275751 92 3998ft 175kts
23-Sep-20 19:20 33.795129 -118.214975 95 3998ft 175kts
23-Sep-20 19:21 33.790413 -118.152311 95 3992ft 173kts
23-Sep-20 19:22 33.786214 -118.094091 95 3996ft 168kts
23-Sep-20 19:23 33.784207 -118.039603 72 3987ft 158kts
23-Sep-20 19:24 33.805351 -117.993855 60 3992ft 155kts
23-Sep-20 19:25 33.825936 -117.947118 62 3989ft 154kts
23-Sep-20 19:26 33.845771 -117.899573 62 3987ft 153kts
23-Sep-20 19:27 33.865006 -117.852491 62 3985ft 152kts
23-Sep-20 19:28 33.884809 -117.803614 63 3982ft 151kts
23-Sep-20 19:29 33.904385 -117.755718 62 3979ft 150kts
23-Sep-20 19:30 33.924577 -117.707137 58 3975ft 150kts
23-Sep-20 19:31 33.961416 -117.677443 28 3779ft 160kts
23-Sep-20 19:32 34.001110 -117.687313 289 3491ft 154kts
23-Sep-20 19:33 33.976644 -117.720560 171 3499ft 152kts
23-Sep-20 19:34 33.931408 -117.711455 173 3480ft 152kts
23-Sep-20 19:35 33.891147 -117.731713 207 3379ft 155kts
23-Sep-20 19:36 33.853560 -117.755680 208 3380ft 151kts
23-Sep-20 19:37 33.817182 -117.783102 224 2955ft 162kts
23-Sep-20 19:38 33.779294 -117.804120 203 2778ft 143kts
23-Sep-20 19:39 33.748212 -117.822798 208 2197ft 97kts
23-Sep-20 19:40 33.723553 -117.838118 208 1374ft 94kts
23-Sep-20 19:41 33.700185 -117.853304 206 468ft 84kts
23-Sep-20 19:42 33.679870 -117.866181 206 72ft 68kts
23-Sep-20 19:43 33.675980 -117.869854 295 59ft 1kts
23-Sep-20 19:44 33.675769 -117.870988 217 59ft 0kts
23-Sep-20 19:45 33.675709 -117.871041 215 59ft 0kts
23-Sep-20 19:46 33.675684 -117.871063 215 59ft 0kts

Navigation Log

Ident Type
Flight plan parsing failed, navigation log unavailable